Terminal Aerodrome Forecast
Issued by NWS Omaha/Valley, NE

Home | Current Version | Previous Version | Text Only | Print | Product List | Glossary On
Versions: 1 2 3 4 5 6 7 8 9 10 11 12 13 14 15 16 17 18 19 20 21 22 23 24 25 26 27
000
FTUS43 KOAX 100704 AAA
TAFOMA
TAF AMD
KOMA 100704Z 1007/1106 16006KT P6SM SCT090 OVC250
     FM101800 16014G23KT P6SM BKN250
     FM110000 15012KT P6SM OVC250=

USA.gov is the U.S. government's official web portal to all federal, state and local government web resources and services.